Main page
METAR-TAF:

METAR-TAF

Airports :

Alderney Airport

Alderney,

latitude: 49-43N, longitude: 002-12W, elevation: 71 m

Current weather observation

The report was made 11 hours and 35 minutes ago, at 18:20 UTC
Wind 5 kt from the West/Northwest
Temperature 9°C
Humidity 81%
Pressure 1029 hPa
Visibility 10 km or more
Few clouds at a height of 2200 ft
Scattered clouds at a height of 3800 ft

METAR: EGJA 101820Z 30005KT 9999 FEW022 SCT038 09/06 Q1029

Time: 05:55 (05:55 UTC)

Forecast

The report was made 12 hours and 54 minutes ago, at 17:01 UTC
Forecast valid from 10 at 18 UTC to 11 at 03 UTC
Wind 6 kt from the West/Northwest
Visibility 10 km or more
Scattered clouds at a height of 2500 ft

TAF: EGJA 101701Z 1018/1103 30006KT 9999 SCT025

Weather observations and forecasts of more than 4000 airports (METAR and TAF reports).

The available stations are represented by yellow and red dots on the map.

Hover mouse over dot to see the name of the station.

Then click to see weather observations and forecasts.

To change the map : click on the green buttons with a black cross to zoom in, on the green button with a dash to zoom out, or on the green arrows for adjacent maps.


METAR-TAF: